Time,TemperatureF,DewpointF,PressureIn,WindDirection,WindDirectionDegrees,WindSpeedMPH,WindSpeedGustMPH,Humidity,HourlyPrecipIn,Conditions,Clouds,dailyrainin,SoftwareType,DateUTC
2013-10-26 00:19:00,47.3,35.8,29.65,SSW,202,2.6,7.4,64,0.00,,SKC,0.00,VWS V14.01,2013-10-26 05:19:00,
2013-10-26 00:39:00,46.6,33.9,29.65,SE,135,1.0,6.7,61,0.00,,SKC,0.00,VWS V14.01,2013-10-26 05:39:00,
2013-10-26 01:00:00,46.2,34.3,29.65,WNW,292,2.3,6.3,63,0.00,,SKC,0.00,VWS V14.01,2013-10-26 06:00:00,
2013-10-26 01:20:00,46.0,33.8,29.65,WNW,292,2.8,12.9,62,0.00,,SKC,0.00,VWS V14.01,2013-10-26 06:20:00,
2013-10-26 01:39:00,46.4,31.6,29.68,SSW,202,2.3,8.6,56,0.00,,SKC,0.00,VWS V14.01,2013-10-26 06:39:00,
2013-10-26 02:00:00,45.1,32.1,29.68,NNW,338,3.6,13.3,60,0.00,,SKC,0.00,VWS V14.01,2013-10-26 07:00:00,
2013-10-26 02:20:00,43.7,29.9,29.68,WNW,292,4.6,17.6,58,0.00,,SKC,0.00,VWS V14.01,2013-10-26 07:20:00,
2013-10-26 02:39:00,41.5,31.8,29.71,WSW,248,2.6,11.0,68,0.00,,SKC,0.00,VWS V14.01,2013-10-26 07:39:00,
2013-10-26 02:59:00,41.2,32.2,29.71,WNW,292,2.8,8.2,70,0.00,,SKC,0.00,VWS V14.01,2013-10-26 07:59:00,
2013-10-26 03:20:00,41.0,32.0,29.71,WNW,292,6.9,10.6,70,0.00,,SKC,0.00,VWS V14.01,2013-10-26 08:20:00,
2013-10-26 03:40:00,41.0,32.0,29.71,South,180,1.3,10.6,70,0.00,,SKC,0.00,VWS V14.01,2013-10-26 08:40:00,
2013-10-26 03:59:00,41.0,32.0,29.71,WSW,248,3.9,10.2,70,0.00,,SKC,0.00,VWS V14.01,2013-10-26 08:59:00,
2013-10-26 04:20:00,40.8,32.2,29.74,SSE,158,1.3,8.2,71,0.00,,SKC,0.00,VWS V14.01,2013-10-26 09:20:00,
2013-10-26 04:39:00,40.6,32.3,29.74,NW,315,6.7,10.2,72,0.00,,SKC,0.00,VWS V14.01,2013-10-26 09:39:00,
2013-10-26 04:59:00,39.6,33.3,29.74,WNW,292,1.5,12.9,78,0.00,,SKC,0.00,VWS V14.01,2013-10-26 09:59:00,
2013-10-26 05:19:00,39.2,33.6,29.74,WNW,292,0.0,6.7,80,0.00,,SKC,0.00,VWS V14.01,2013-10-26 10:19:00,
2013-10-26 05:39:00,39.2,33.6,29.74,NNE,22,3.6,10.2,80,0.00,,SKC,0.00,VWS V14.01,2013-10-26 10:39:00,
2013-10-26 06:00:00,39.2,32.6,29.76,South,180,3.6,12.9,77,0.00,,SKC,0.00,VWS V14.01,2013-10-26 11:00:00,
2013-10-26 06:19:00,39.0,32.8,29.76,SSW,202,3.6,9.8,78,0.00,,SKC,0.00,VWS V14.01,2013-10-26 11:19:00,
2013-10-26 06:40:00,38.7,32.4,29.76,ESE,112,1.8,12.9,78,0.00,,SKC,0.00,VWS V14.01,2013-10-26 11:40:00,
2013-10-26 07:00:00,38.1,32.5,29.79,WNW,292,3.1,8.6,80,0.00,,SKC,0.00,VWS V14.01,2013-10-26 12:00:00,
2013-10-26 07:19:00,37.4,33.3,29.79,WNW,292,4.6,7.4,85,0.00,,SKC,0.00,VWS V14.01,2013-10-26 12:19:00,
2013-10-26 07:40:00,37.0,32.7,29.79,South,180,3.1,13.7,84,0.00,,SKC,0.00,VWS V14.01,2013-10-26 12:40:00,
2013-10-26 08:00:00,37.2,32.8,29.79,SSW,202,1.3,10.6,84,0.00,,SKC,0.00,VWS V14.01,2013-10-26 13:00:00,
2013-10-26 08:19:00,37.6,32.3,29.82,NNW,338,1.3,7.4,81,0.00,,SKC,0.00,VWS V14.01,2013-10-26 13:19:00,
2013-10-26 08:39:00,38.1,32.2,29.82,West,270,3.6,10.2,79,0.00,,SKC,0.00,VWS V14.01,2013-10-26 13:39:00,
2013-10-26 08:59:00,38.7,31.8,29.82,WNW,292,2.8,11.4,76,0.00,,SKC,0.00,VWS V14.01,2013-10-26 13:59:00,
2013-10-26 09:19:00,38.5,31.3,29.82,ESE,112,1.5,11.4,75,0.00,,SKC,0.00,VWS V14.01,2013-10-26 14:19:00,
2013-10-26 09:39:00,38.7,31.1,29.85,NW,315,2.8,13.7,74,0.00,,SKC,0.00,VWS V14.01,2013-10-26 14:39:00,
2013-10-26 09:59:00,39.0,31.5,29.85,WNW,292,3.3,10.2,74,0.00,,SKC,0.00,VWS V14.01,2013-10-26 14:59:00,
2013-10-26 10:19:00,39.4,31.5,29.88,SSE,158,2.8,7.4,73,0.00,,SKC,0.00,VWS V14.01,2013-10-26 15:19:00,
2013-10-26 10:39:00,39.6,31.0,29.85,NNW,338,2.6,11.0,71,0.00,,SKC,0.00,VWS V14.01,2013-10-26 15:39:00,
2013-10-26 10:59:00,39.9,31.3,29.88,SSE,158,1.8,9.8,71,0.00,,SKC,0.00,VWS V14.01,2013-10-26 15:59:00,
2013-10-26 11:19:00,40.3,30.9,29.88,SSW,202,2.3,10.6,69,0.00,,SKC,0.00,VWS V14.01,2013-10-26 16:19:00,
2013-10-26 11:39:00,42.3,31.7,29.88,SSW,202,1.5,8.6,66,0.00,,SKC,0.00,VWS V14.01,2013-10-26 16:39:00,
2013-10-26 11:59:00,42.3,30.6,29.91,WSW,248,3.3,13.7,63,0.00,,SKC,0.00,VWS V14.01,2013-10-26 16:59:00,
2013-10-26 12:19:00,42.8,29.5,29.91,WNW,292,4.1,11.4,59,0.00,,SKC,0.00,VWS V14.01,2013-10-26 17:19:00,
2013-10-26 12:39:00,43.0,31.6,29.91,SSW,202,2.8,9.8,64,0.00,,SKC,0.00,VWS V14.01,2013-10-26 17:39:00,
2013-10-26 12:59:00,42.4,29.5,29.91,NNW,338,6.4,9.8,60,0.00,,SKC,0.00,VWS V14.01,2013-10-26 17:59:00,
2013-10-26 13:19:00,42.3,29.0,29.91,WNW,292,4.4,18.0,59,0.00,,SKC,0.00,VWS V14.01,2013-10-26 18:19:00,
2013-10-26 13:39:00,39.0,31.8,29.94,WNW,292,1.3,11.0,75,0.00,,SKC,0.00,VWS V14.01,2013-10-26 18:39:00,
2013-10-26 13:59:00,40.3,33.7,29.94,West,270,2.3,9.8,77,0.00,,SKC,0.00,VWS V14.01,2013-10-26 18:59:00,
2013-10-26 14:19:00,42.1,34.1,29.91,WNW,292,2.3,10.2,73,0.00,,SKC,0.00,VWS V14.01,2013-10-26 19:19:00,
2013-10-26 14:39:00,43.5,33.7,29.94,SSE,158,1.5,18.0,68,0.00,,SKC,0.00,VWS V14.01,2013-10-26 19:39:00,
2013-10-26 14:59:00,44.1,28.9,29.94,SSW,202,2.3,12.5,55,0.00,,SKC,0.00,VWS V14.01,2013-10-26 19:59:00,
2013-10-26 15:19:00,43.3,28.7,29.94,WSW,248,1.5,9.8,56,0.00,,SKC,0.00,VWS V14.01,2013-10-26 20:19:00,
2013-10-26 15:39:00,43.3,27.8,29.94,NW,315,2.6,10.6,54,0.00,,SKC,0.00,VWS V14.01,2013-10-26 20:39:00,
2013-10-26 15:59:00,42.4,27.0,29.94,South,180,0.0,14.1,54,0.00,,SKC,0.00,VWS V14.01,2013-10-26 20:59:00,
2013-10-26 16:19:00,42.3,28.1,29.94,SSE,158,2.3,10.6,57,0.00,,SKC,0.00,VWS V14.01,2013-10-26 21:19:00,
2013-10-26 16:39:00,41.5,27.5,29.94,SSW,202,1.5,7.4,57,0.00,,SKC,0.00,VWS V14.01,2013-10-26 21:39:00,
2013-10-26 16:59:00,41.2,28.0,29.94,WNW,292,1.8,8.2,59,0.00,,SKC,0.00,VWS V14.01,2013-10-26 21:59:00,
2013-10-26 17:19:00,40.6,28.3,29.94,SSE,158,1.0,6.7,61,0.00,,SKC,0.00,VWS V14.01,2013-10-26 22:19:00,
2013-10-26 17:39:00,40.3,28.7,29.94,SSW,202,0.0,5.1,63,0.00,,SKC,0.00,VWS V14.01,2013-10-26 22:39:00,
2013-10-26 17:59:00,39.9,29.1,29.94,West,270,2.6,5.1,65,0.00,,SKC,0.00,VWS V14.01,2013-10-26 22:59:00,
2013-10-26 18:19:00,39.6,29.5,29.94,South,180,0.0,5.5,67,0.00,,SKC,0.00,VWS V14.01,2013-10-26 23:19:00,
2013-10-26 18:39:00,39.4,29.7,29.94,SSE,158,0.0,2.3,68,0.00,,SKC,0.00,VWS V14.01,2013-10-26 23:39:00,
2013-10-26 18:59:00,39.0,29.7,29.94,SSE,158,0.0,0.0,69,0.00,,SKC,0.00,VWS V14.01,2013-10-26 23:59:00,
2013-10-26 19:19:00,38.7,30.4,29.94,SSE,158,0.0,0.0,72,0.00,,SKC,0.00,VWS V14.01,2013-10-27 00:19:00,
2013-10-26 19:39:00,38.5,30.2,29.94,SSE,158,0.0,0.0,72,0.00,,SKC,0.00,VWS V14.01,2013-10-27 00:39:00,
2013-10-26 19:59:00,38.3,30.4,29.94,South,180,0.0,0.0,73,0.00,,SKC,0.00,VWS V14.01,2013-10-27 00:59:00,
2013-10-26 20:19:00,38.3,30.4,29.94,South,180,0.0,2.3,73,0.00,,SKC,0.00,VWS V14.01,2013-10-27 01:19:00,
2013-10-26 20:39:00,38.1,30.2,29.94,South,180,0.0,0.0,73,0.00,,SKC,0.00,VWS V14.01,2013-10-27 01:39:00,
2013-10-26 20:59:00,38.1,30.6,29.94,South,180,0.0,0.0,74,0.00,,SKC,0.00,VWS V14.01,2013-10-27 01:59:00,
2013-10-26 21:19:00,37.6,30.4,29.94,South,180,0.0,0.0,75,0.00,,SKC,0.00,VWS V14.01,2013-10-27 02:19:00,
2013-10-26 21:39:00,37.4,30.2,29.94,South,180,0.0,0.0,75,0.00,,SKC,0.00,VWS V14.01,2013-10-27 02:39:00,
2013-10-26 21:59:00,37.4,30.5,29.94,South,180,0.0,0.0,76,0.00,,SKC,0.00,VWS V14.01,2013-10-27 02:59:00,
2013-10-26 22:19:00,37.6,30.7,29.94,SSW,202,0.0,0.0,76,0.00,,SKC,0.00,VWS V14.01,2013-10-27 03:19:00,
2013-10-26 22:39:00,37.4,30.5,29.94,SSW,202,0.0,0.0,76,0.00,,SKC,0.00,VWS V14.01,2013-10-27 03:39:00,
2013-10-26 22:59:00,37.4,30.2,29.91,SSE,158,0.0,2.7,75,0.00,,SKC,0.00,VWS V14.01,2013-10-27 03:59:00,
2013-10-26 23:19:00,37.2,30.4,29.91,SSE,158,0.0,3.5,76,0.00,,SKC,0.00,VWS V14.01,2013-10-27 04:19:00,
2013-10-26 23:39:00,36.9,30.0,29.91,WSW,248,1.0,2.7,76,0.00,,SKC,0.00,VWS V14.01,2013-10-27 04:39:00,
2013-10-26 23:59:00,36.9,30.0,29.91,SSE,158,0.0,2.7,76,0.00,,SKC,0.00,VWS V14.01,2013-10-27 04:59:00,